Time;durP1;ratioP1;P1;durP2;ratioP2;P2;SDS_P1;SDS_P2;PMS_P1;PMS_P2;Temp;Humidity;BMP_temperature;BMP_pressure;BME280_temperature;BME280_humidity;BME280_pressure;Samples;Min_cycle;Max_cycle;Signal;HPM_P1;HPM_P2
2023/10/10 00:02:07;;;;;;;0.10;0.10;;;15.80;99.90;;;;;;4960836;28;20231;-81
2023/10/10 00:04:35;;;;;;;0.10;0.10;;;15.70;99.90;;;;;;4959215;28;20225;-81
2023/10/10 00:07:07;;;;;;;0.10;0.10;;;15.60;99.90;;;;;;4961708;28;20584;-81
2023/10/10 00:09:33;;;;;;;0.10;0.10;;;15.60;99.90;;;;;;4959446;28;20254;-81
2023/10/10 00:11:58;;;;;;;0.10;0.10;;;15.40;99.90;;;;;;4959403;28;20173;-81
2023/10/10 00:14:27;;;;;;;0.10;0.10;;;15.40;99.90;;;;;;4959355;28;20197;-81
2023/10/10 00:16:59;;;;;;;0.10;0.10;;;15.30;99.90;;;;;;4958003;28;20239;-81
2023/10/10 00:19:32;;;;;;;0.10;0.10;;;15.20;99.90;;;;;;4958295;28;20190;-81
2023/10/10 00:22:01;;;;;;;0.10;0.10;;;15.20;99.90;;;;;;4958807;28;20169;-81
2023/10/10 00:24:33;;;;;;;0.10;0.10;;;15.20;99.90;;;;;;4959070;28;20201;-81
2023/10/10 00:27:06;;;;;;;0.10;0.10;;;15.30;99.90;;;;;;4958038;28;20181;-81
2023/10/10 00:29:33;;;;;;;0.10;0.10;;;15.40;99.90;;;;;;4959397;28;20204;-81
2023/10/10 00:32:05;;;;;;;0.10;0.10;;;15.50;99.90;;;;;;4958869;28;20184;-81
2023/10/10 00:34:34;;;;;;;0.10;0.10;;;15.50;99.90;;;;;;4957392;28;20213;-81
2023/10/10 00:37:07;;;;;;;0.10;0.10;;;15.50;99.90;;;;;;4958559;28;20181;-81
2023/10/10 00:39:36;;;;;;;0.10;0.10;;;15.50;99.90;;;;;;4959239;28;20252;-81
2023/10/10 00:42:08;;;;;;;0.10;0.10;;;15.40;99.90;;;;;;4962608;28;20652;-81
2023/10/10 00:44:37;;;;;;;0.10;0.10;;;15.20;99.90;;;;;;4962457;28;20208;-81
2023/10/10 00:47:04;;;;;;;0.10;0.10;;;15.00;99.90;;;;;;4964761;28;20663;-81
2023/10/10 00:49:34;;;;;;;0.10;0.10;;;14.90;99.90;;;;;;4963913;28;20680;-81
2023/10/10 00:52:02;;;;;;;0.10;0.10;;;14.80;99.90;;;;;;4963801;28;20172;-81
2023/10/10 00:54:31;;;;;;;0.10;0.10;;;14.70;99.90;;;;;;4962177;28;20582;-81
2023/10/10 00:56:59;;;;;;;0.10;0.10;;;14.60;99.90;;;;;;4962023;28;20648;-81
2023/10/10 00:59:35;;;;;;;0.10;0.10;;;14.60;99.90;;;;;;4978620;28;20200;-81
2023/10/10 01:02:10;;;;;;;0.10;0.10;;;14.60;99.90;;;;;;4962754;28;20188;-81
2023/10/10 01:04:39;;;;;;;0.10;0.10;;;14.70;99.90;;;;;;4963721;28;20221;-81
2023/10/10 01:07:08;;;;;;;0.10;0.10;;;14.60;99.90;;;;;;4962308;28;20545;-81
2023/10/10 01:09:41;;;;;;;0.10;0.10;;;14.70;99.90;;;;;;4963403;28;20201;-81
2023/10/10 01:12:06;;;;;;;0.10;0.10;;;14.70;99.90;;;;;;4963741;28;20180;-81
2023/10/10 01:14:32;;;;;;;0.10;0.10;;;14.70;99.90;;;;;;4963554;28;20208;-81
2023/10/10 01:16:58;;;;;;;0.10;0.10;;;14.70;99.90;;;;;;4966064;28;20267;-81
2023/10/10 01:19:31;;;;;;;0.10;0.10;;;14.70;99.90;;;;;;4962913;28;20185;-81
2023/10/10 01:21:58;;;;;;;0.10;0.10;;;14.60;99.90;;;;;;4964998;28;20185;-81
2023/10/10 01:24:31;;;;;;;0.10;0.10;;;14.50;99.90;;;;;;4964015;28;20215;-81
2023/10/10 01:27:16;;;;;;;0.10;0.10;;;14.60;99.90;;;;;;4963457;28;20181;-81
2023/10/10 01:29:49;;;;;;;0.10;0.10;;;14.70;99.90;;;;;;4963316;28;20196;-81
2023/10/10 01:32:17;;;;;;;0.00;0.00;;;14.70;99.90;;;;;;4966985;28;20192;-81
2023/10/10 01:34:43;;;;;;;0.10;0.10;;;14.80;99.90;;;;;;4964867;28;20204;-81
2023/10/10 01:37:22;;;;;;;0.10;0.10;;;14.80;99.90;;;;;;4964314;28;20305;-81
2023/10/10 01:39:55;;;;;;;0.10;0.10;;;14.80;99.90;;;;;;4963034;28;20184;-81
2023/10/10 01:42:31;;;;;;;0.10;0.10;;;14.90;99.90;;;;;;4965469;28;20195;-81
2023/10/10 01:45:07;;;;;;;0.10;0.10;;;14.90;99.90;;;;;;4967501;28;20294;-82
2023/10/10 01:47:34;;;;;;;0.10;0.10;;;14.90;99.90;;;;;;4967195;28;20219;-82
2023/10/10 01:50:07;;;;;;;0.10;0.10;;;14.90;99.90;;;;;;4965117;28;20260;-82
2023/10/10 01:52:45;;;;;;;0.00;0.00;;;14.80;99.90;;;;;;4968449;28;21031;-82
2023/10/10 01:55:11;;;;;;;0.10;0.10;;;14.80;99.90;;;;;;4967432;28;20299;-81
2023/10/10 01:57:37;;;;;;;0.10;0.10;;;14.70;99.90;;;;;;4965527;28;20219;-82
2023/10/10 02:00:19;;;;;;;0.10;0.10;;;14.60;99.90;;;;;;4965559;28;20197;-81
2023/10/10 02:02:45;;;;;;;0.10;0.10;;;14.40;99.90;;;;;;4965373;28;20203;-81
2023/10/10 02:05:13;;;;;;;0.10;0.10;;;14.30;99.90;;;;;;4961901;28;20236;-81
2023/10/10 02:07:39;;;;;;;0.10;0.10;;;14.30;99.90;;;;;;4964272;28;20181;-81
2023/10/10 02:10:13;;;;;;;0.10;0.10;;;14.40;99.90;;;;;;4962999;28;20247;-81
2023/10/10 02:12:44;;;;;;;0.00;0.00;;;14.40;99.90;;;;;;4966113;28;20592;-81
2023/10/10 02:15:12;;;;;;;0.00;0.00;;;14.40;99.90;;;;;;4967437;28;20296;-82
2023/10/10 02:17:50;;;;;;;0.10;0.10;;;14.40;99.90;;;;;;4968834;28;20199;-82
2023/10/10 02:23:09;;;;;;;0.10;0.10;;;14.30;99.90;;;;;;4966778;28;20202;-82
2023/10/10 02:30:45;;;;;;;0.10;0.10;;;14.10;99.90;;;;;;4961649;28;20191;-78
2023/10/10 02:33:19;;;;;;;0.10;0.10;;;14.00;99.90;;;;;;4961678;28;20212;-78
2023/10/10 02:35:56;;;;;;;0.10;0.10;;;13.90;99.90;;;;;;4960357;28;20270;-79
2023/10/10 02:38:39;;;;;;;0.10;0.10;;;13.80;99.90;;;;;;4962789;28;20188;-79
2023/10/10 02:43:56;;;;;;;0.10;0.10;;;13.60;99.90;;;;;;4962570;28;20620;-78
2023/10/10 02:46:34;;;;;;;0.10;0.10;;;13.50;99.90;;;;;;4960347;28;20270;-78
2023/10/10 02:49:13;;;;;;;0.10;0.10;;;13.50;99.90;;;;;;4959682;28;20197;-78
2023/10/10 02:51:48;;;;;;;0.10;0.10;;;13.50;99.90;;;;;;4958699;28;20183;-79
2023/10/10 02:54:43;;;;;;;0.00;0.00;;;13.50;99.90;;;;;;4962344;28;20250;-78
2023/10/10 02:59:53;;;;;;;0.00;0.00;;;13.50;99.90;;;;;;4956310;28;20197;-80
2023/10/10 03:02:20;;;;;;;0.10;0.10;;;13.50;99.90;;;;;;4975917;28;20248;-79
2023/10/10 03:05:06;;;;;;;0.07;0.07;;;13.60;99.90;;;;;;4958381;28;20220;-79
2023/10/10 03:07:33;;;;;;;0.00;0.00;;;13.60;99.90;;;;;;4960377;28;20272;-79
2023/10/10 03:12:36;;;;;;;0.10;0.10;;;13.70;99.90;;;;;;4960843;28;20263;-79
2023/10/10 03:25:49;;;;;;;0.10;0.10;;;14.00;99.90;;;;;;4960911;28;20177;-79
2023/10/10 03:28:20;;;;;;;0.10;0.10;;;14.10;99.90;;;;;;4958851;28;20238;-79
2023/10/10 03:31:04;;;;;;;0.10;0.10;;;14.20;99.90;;;;;;4978949;28;20847;-79
2023/10/10 05:25:31;;;;;;;0.10;0.10;;;13.60;99.90;;;;;;4965625;28;20671;-82
2023/10/10 05:27:58;;;;;;;0.10;0.10;;;13.60;99.90;;;;;;4963458;28;20180;-82
2023/10/10 05:30:25;;;;;;;0.10;0.10;;;13.60;99.90;;;;;;4964618;28;20208;-81
2023/10/10 05:33:01;;;;;;;0.10;0.10;;;13.60;99.90;;;;;;4967177;28;20187;-82
2023/10/10 05:35:38;;;;;;;0.10;0.10;;;13.60;99.90;;;;;;4963371;28;20203;-80
2023/10/10 05:38:07;;;;;;;0.10;0.10;;;13.70;99.90;;;;;;4961070;28;20214;-81
2023/10/10 05:40:33;;;;;;;0.10;0.10;;;13.70;99.90;;;;;;4962286;28;21144;-81
2023/10/10 05:43:09;;;;;;;0.10;0.10;;;13.70;99.90;;;;;;4966760;28;20312;-80
2023/10/10 05:45:38;;;;;;;0.10;0.10;;;13.70;99.90;;;;;;4977376;28;20183;-78
2023/10/10 05:48:07;;;;;;;0.10;0.10;;;13.70;99.90;;;;;;4959439;28;20196;-78
2023/10/10 05:50:33;;;;;;;0.10;0.10;;;13.70;99.90;;;;;;4962291;28;20199;-81
2023/10/10 05:53:00;;;;;;;0.10;0.10;;;13.70;99.90;;;;;;4964210;28;20188;-79
2023/10/10 05:55:28;;;;;;;0.10;0.10;;;13.60;99.90;;;;;;4962235;28;20180;-81
2023/10/10 05:57:57;;;;;;;0.23;0.23;;;13.50;99.90;;;;;;4976081;28;20231;-80
2023/10/10 06:00:26;;;;;;;0.10;0.10;;;13.60;99.90;;;;;;4962828;28;20189;-80
2023/10/10 06:02:51;;;;;;;0.00;0.00;;;13.70;99.90;;;;;;4961655;28;20220;-80
2023/10/10 06:05:17;;;;;;;0.10;0.10;;;13.80;99.90;;;;;;4964190;28;20188;-80
2023/10/10 06:07:43;;;;;;;0.10;0.10;;;13.80;99.90;;;;;;4960548;28;20216;-80
2023/10/10 06:10:16;;;;;;;0.10;0.10;;;13.90;99.90;;;;;;4961178;28;20220;-81
2023/10/10 06:12:46;;;;;;;0.10;0.10;;;14.00;99.90;;;;;;4960623;28;20181;-80
2023/10/10 06:15:16;;;;;;;0.10;0.10;;;14.00;99.90;;;;;;4962771;28;20325;-80
2023/10/10 06:17:42;;;;;;;0.10;0.10;;;14.20;99.90;;;;;;4961758;28;20548;-80
2023/10/10 06:20:10;;;;;;;0.10;0.10;;;14.20;99.90;;;;;;4961839;28;20239;-80
2023/10/10 06:22:37;;;;;;;0.10;0.10;;;14.30;99.90;;;;;;4962575;28;20191;-80
2023/10/10 06:25:05;;;;;;;0.10;0.10;;;14.40;99.90;;;;;;4962276;28;20307;-80
2023/10/10 06:27:33;;;;;;;0.10;0.10;;;14.30;99.90;;;;;;4959388;28;20542;-81
2023/10/10 06:29:59;;;;;;;0.10;0.10;;;14.20;99.90;;;;;;4962058;28;21296;-79
2023/10/10 06:32:31;;;;;;;0.10;0.10;;;14.30;99.90;;;;;;4959822;28;20264;-79
2023/10/10 06:37:41;;;;;;;0.10;0.10;;;14.40;99.90;;;;;;4960331;28;20263;-80
2023/10/10 06:40:08;;;;;;;0.10;0.10;;;14.40;99.90;;;;;;4963498;28;20220;-79
2023/10/10 06:42:35;;;;;;;0.10;0.10;;;14.50;99.90;;;;;;4960463;28;20192;-80
2023/10/10 06:45:22;;;;;;;0.10;0.10;;;14.60;99.90;;;;;;4966008;28;20216;-81
2023/10/10 06:47:50;;;;;;;0.10;0.10;;;14.70;99.90;;;;;;4967280;28;20202;-82
2023/10/10 06:50:21;;;;;;;0.10;0.10;;;14.90;99.90;;;;;;4966401;28;20852;-81
2023/10/10 06:52:47;;;;;;;0.10;0.10;;;15.10;99.90;;;;;;4958812;28;20183;-80
2023/10/10 06:55:20;;;;;;;0.10;0.10;;;15.20;99.90;;;;;;4959548;28;20205;-81
2023/10/10 06:57:59;;;;;;;0.10;0.10;;;15.30;99.90;;;;;;4958483;28;20262;-83
2023/10/10 07:00:45;;;;;;;0.10;0.10;;;15.50;99.90;;;;;;4961958;28;20195;-81
2023/10/10 07:03:18;;;;;;;0.10;0.10;;;15.80;99.90;;;;;;4974920;28;20208;-81
2023/10/10 07:05:44;;;;;;;0.10;0.10;;;16.00;99.90;;;;;;4963968;28;20196;-81
2023/10/10 07:08:13;;;;;;;0.10;0.10;;;16.20;99.90;;;;;;4963086;28;20197;-81
2023/10/10 07:10:42;;;;;;;0.10;0.10;;;16.20;99.90;;;;;;4963588;28;20774;-81
2023/10/10 07:13:18;;;;;;;0.10;0.10;;;16.10;99.90;;;;;;4967854;28;20216;-81
2023/10/10 07:15:51;;;;;;;0.10;0.10;;;16.20;99.90;;;;;;4967405;28;21114;-81
2023/10/10 07:18:22;;;;;;;0.10;0.10;;;16.10;99.90;;;;;;4958062;28;20211;-81
2023/10/10 07:21:08;;;;;;;0.10;0.10;;;16.10;99.90;;;;;;4960626;28;20219;-81
2023/10/10 07:23:38;;;;;;;0.10;0.10;;;16.00;99.90;;;;;;4963238;28;20235;-81
2023/10/10 07:26:18;;;;;;;0.10;0.10;;;15.90;99.90;;;;;;4960636;28;20192;-81
2023/10/10 07:28:53;;;;;;;0.10;0.10;;;16.00;99.90;;;;;;4962861;28;20197;-82
2023/10/10 07:31:22;;;;;;;0.10;0.10;;;16.20;99.90;;;;;;4961001;28;20181;-82
2023/10/10 07:34:34;;;;;;;0.10;0.10;;;16.20;99.90;;;;;;4961297;28;20212;-82
2023/10/10 07:36:43;;;;;;;0.10;0.10;;;16.40;99.90;;;;;;4960640;28;20201;-81
2023/10/10 07:41:57;;;;;;;0.10;0.10;;;16.50;99.90;;;;;;4960915;28;20870;-80
2023/10/10 07:44:23;;;;;;;0.10;0.10;;;16.60;99.90;;;;;;4960077;28;20237;-80
2023/10/10 07:47:19;;;;;;;0.10;0.10;;;16.70;99.90;;;;;;4962549;28;20219;-80
2023/10/10 07:49:50;;;;;;;0.10;0.10;;;16.80;99.90;;;;;;4961375;28;20656;-80
2023/10/10 07:52:20;;;;;;;0.10;0.10;;;16.80;99.90;;;;;;4960032;28;20196;-81
2023/10/10 07:54:53;;;;;;;0.10;0.10;;;16.80;99.90;;;;;;4964496;28;20681;-80
2023/10/10 07:57:22;;;;;;;0.10;0.10;;;17.00;99.90;;;;;;4962328;28;21029;-81
2023/10/10 07:59:49;;;;;;;0.10;0.10;;;17.00;99.90;;;;;;4959826;28;20181;-80
2023/10/10 08:02:24;;;;;;;0.10;0.10;;;17.10;99.90;;;;;;4960896;28;20184;-80
2023/10/10 08:04:56;;;;;;;0.10;0.10;;;17.20;99.90;;;;;;4960105;28;20712;-80
2023/10/10 08:07:26;;;;;;;0.10;0.10;;;17.40;99.90;;;;;;4958777;28;20270;-81
2023/10/10 08:10:13;;;;;;;0.10;0.10;;;17.60;99.90;;;;;;4963284;28;20244;-80
2023/10/10 08:12:37;;;;;;;0.10;0.10;;;17.70;99.90;;;;;;4959478;28;20204;-80
2023/10/10 08:15:18;;;;;;;0.10;0.10;;;17.70;99.90;;;;;;4958780;28;20296;-80
2023/10/10 08:17:51;;;;;;;0.10;0.10;;;17.70;99.90;;;;;;4961868;28;20190;-80
2023/10/10 08:23:05;;;;;;;0.10;0.10;;;18.10;99.90;;;;;;4961534;28;20199;-80
2023/10/10 08:25:32;;;;;;;0.10;0.10;;;18.30;99.90;;;;;;4958767;28;20223;-81
2023/10/10 08:27:58;;;;;;;0.10;0.10;;;18.40;99.90;;;;;;4975564;28;20204;-81
2023/10/10 08:30:28;;;;;;;0.10;0.10;;;18.60;99.90;;;;;;4958523;28;21390;-81
2023/10/10 08:32:57;;;;;;;0.10;0.10;;;18.60;99.90;;;;;;4958771;28;20208;-81
2023/10/10 08:35:25;;;;;;;0.10;0.10;;;18.80;99.90;;;;;;4957202;28;20198;-80
2023/10/10 08:37:51;;;;;;;0.10;0.10;;;18.60;99.90;;;;;;4960544;28;20191;-81
2023/10/10 08:40:19;;;;;;;0.10;0.10;;;18.70;99.90;;;;;;4959255;28;20307;-82
2023/10/10 08:42:48;;;;;;;0.10;0.10;;;18.70;99.90;;;;;;4957313;28;20194;-81
2023/10/10 08:45:22;;;;;;;0.10;0.10;;;18.90;99.90;;;;;;4957978;28;20272;-80
2023/10/10 08:48:01;;;;;;;0.10;0.10;;;19.10;99.90;;;;;;4961751;28;20180;-81
2023/10/10 08:50:28;;;;;;;0.10;0.10;;;19.20;99.90;;;;;;4960095;28;20856;-81
2023/10/10 08:52:53;;;;;;;0.10;0.10;;;19.40;99.90;;;;;;4961204;28;20672;-81
2023/10/10 08:55:26;;;;;;;0.10;0.10;;;19.60;99.90;;;;;;4957749;28;20215;-81
2023/10/10 08:57:55;;;;;;;3.50;3.40;;;19.50;99.90;;;;;;4958161;28;20252;-80
2023/10/10 09:00:27;;;;;;;0.10;0.10;;;19.70;99.90;;;;;;4959968;28;20794;-80
2023/10/10 09:02:56;;;;;;;0.10;0.10;;;19.70;99.90;;;;;;4964743;28;20702;-81
2023/10/10 09:05:24;;;;;;;0.10;0.10;;;19.90;99.90;;;;;;4959885;28;20787;-80
2023/10/10 09:07:52;;;;;;;0.10;0.10;;;19.90;99.90;;;;;;4963498;28;20192;-80
2023/10/10 09:10:28;;;;;;;0.10;0.10;;;19.90;99.90;;;;;;4961531;28;20200;-80
2023/10/10 09:12:58;;;;;;;0.10;0.10;;;19.90;99.90;;;;;;4967165;28;20165;-79
2023/10/10 09:15:25;;;;;;;0.10;0.10;;;20.10;99.90;;;;;;4967659;28;20370;-80
2023/10/10 09:17:58;;;;;;;0.10;0.10;;;20.20;99.90;;;;;;4964416;28;20204;-80
2023/10/10 09:20:28;;;;;;;0.10;0.10;;;20.30;99.90;;;;;;4959157;28;20192;-81
2023/10/10 09:22:58;;;;;;;0.10;0.10;;;20.20;99.90;;;;;;4964104;28;20970;-82
2023/10/10 09:25:44;;;;;;;0.10;0.10;;;20.40;99.90;;;;;;4963516;28;20196;-81
2023/10/10 09:28:15;;;;;;;0.10;0.10;;;20.60;99.90;;;;;;4967370;28;20192;-80
2023/10/10 09:30:45;;;;;;;0.10;0.10;;;20.60;99.90;;;;;;4963622;28;20263;-81
2023/10/10 09:33:23;;;;;;;0.10;0.10;;;20.70;99.90;;;;;;4957738;28;20550;-82
2023/10/10 09:35:54;;;;;;;0.10;0.10;;;20.80;99.90;;;;;;4961669;28;20653;-81
2023/10/10 09:38:34;;;;;;;0.10;0.10;;;21.00;99.90;;;;;;4964283;28;20205;-81
2023/10/10 09:49:52;;;;;;;0.10;0.10;;;21.10;99.90;;;;;;4963173;28;20220;-81
2023/10/10 09:57:42;;;;;;;0.10;0.10;;;20.60;99.90;;;;;;4963933;28;20644;-81
2023/10/10 10:00:15;;;;;;;0.10;0.10;;;21.00;99.90;;;;;;4963792;28;20720;-82
2023/10/10 10:02:56;;;;;;;0.10;0.10;;;21.10;99.90;;;;;;4960870;28;20207;-81
2023/10/10 10:05:28;;;;;;;0.10;0.10;;;21.20;99.90;;;;;;4964130;28;20184;-81
2023/10/10 10:08:13;;;;;;;0.10;0.10;;;21.20;99.90;;;;;;4984087;28;20194;-80
2023/10/10 10:10:55;;;;;;;0.10;0.10;;;21.40;99.90;;;;;;4969581;28;20213;-80
2023/10/10 10:13:37;;;;;;;0.10;0.10;;;21.50;99.90;;;;;;4964209;28;20207;-81
2023/10/10 10:16:19;;;;;;;0.10;0.10;;;21.40;99.90;;;;;;4963737;28;20188;-80
2023/10/10 10:18:47;;;;;;;0.10;0.10;;;21.50;99.90;;;;;;4963362;28;20653;-81
2023/10/10 10:21:30;;;;;;;0.10;0.10;;;21.80;99.90;;;;;;4963941;28;20215;-81
2023/10/10 10:24:15;;;;;;;0.10;0.10;;;21.80;99.90;;;;;;4963344;28;20816;-80
2023/10/10 10:26:43;;;;;;;0.10;0.10;;;22.00;99.90;;;;;;4960170;28;20617;-81
2023/10/10 10:29:22;;;;;;;0.10;0.10;;;22.30;99.90;;;;;;4977324;28;20235;-80
2023/10/10 10:31:57;;;;;;;0.10;0.10;;;22.40;99.90;;;;;;4959798;28;20275;-80
2023/10/10 10:34:23;;;;;;;0.10;0.10;;;22.50;99.90;;;;;;4960634;28;20209;-81
2023/10/10 10:37:06;;;;;;;0.10;0.10;;;22.40;99.90;;;;;;4974368;28;20672;-80
2023/10/10 10:39:37;;;;;;;0.10;0.10;;;22.60;99.90;;;;;;4959314;28;20199;-80
2023/10/10 10:42:11;;;;;;;0.10;0.10;;;22.80;99.90;;;;;;4977477;28;20177;-80
2023/10/10 10:44:58;;;;;;;0.10;0.10;;;22.90;99.90;;;;;;4973737;28;20208;-80
2023/10/10 10:47:45;;;;;;;0.10;0.10;;;22.90;99.90;;;;;;4959823;28;20548;-80
2023/10/10 10:50:28;;;;;;;0.10;0.10;;;22.80;99.90;;;;;;4958960;28;20262;-80
2023/10/10 10:53:06;;;;;;;0.10;0.10;;;22.70;99.90;;;;;;4961055;28;20542;-81
2023/10/10 10:55:39;;;;;;;0.10;0.10;;;22.70;99.90;;;;;;4959274;28;20311;-80
2023/10/10 10:58:08;;;;;;;0.10;0.10;;;22.80;99.90;;;;;;4961293;28;20240;-80
2023/10/10 11:01:00;;;;;;;0.10;0.10;;;22.80;99.90;;;;;;4961761;28;20681;-80
2023/10/10 11:03:37;;;;;;;0.10;0.10;;;22.60;99.90;;;;;;4959365;28;20219;-80
2023/10/10 11:06:07;;;;;;;0.10;0.10;;;22.60;99.90;;;;;;4961194;28;20239;-80
2023/10/10 11:14:00;;;;;;;0.10;0.10;;;22.70;99.90;;;;;;4962236;28;20575;-80
2023/10/10 11:16:39;;;;;;;0.43;0.43;;;22.70;99.90;;;;;;4955024;28;20308;-81
2023/10/10 11:19:12;;;;;;;1.50;1.50;;;22.90;99.90;;;;;;4957842;28;20644;-80
2023/10/10 11:21:48;;;;;;;0.10;0.10;;;22.90;99.90;;;;;;4960141;28;20561;-81
2023/10/10 11:24:23;;;;;;;0.10;0.10;;;23.00;99.90;;;;;;4961159;28;20335;-81
2023/10/10 11:29:48;;;;;;;0.10;0.10;;;23.40;99.90;;;;;;4961107;28;20220;-81
2023/10/10 11:32:15;;;;;;;0.10;0.10;;;23.50;99.90;;;;;;4960399;28;20181;-81
2023/10/10 11:34:44;;;;;;;0.10;0.10;;;23.50;99.90;;;;;;4956372;28;20677;-81
2023/10/10 11:37:20;;;;;;;0.10;0.10;;;23.20;99.90;;;;;;4959918;28;20185;-81
2023/10/10 11:39:47;;;;;;;0.10;0.10;;;23.30;99.90;;;;;;4960706;28;20291;-81
2023/10/10 11:42:35;;;;;;;0.40;0.40;;;23.30;99.90;;;;;;4959952;28;20717;-81
2023/10/10 11:45:06;;;;;;;0.10;0.10;;;23.40;99.90;;;;;;4959226;28;20209;-81
2023/10/10 11:47:42;;;;;;;0.10;0.10;;;23.50;99.90;;;;;;4960695;28;20216;-81
2023/10/10 11:50:11;;;;;;;0.10;0.10;;;23.60;99.90;;;;;;4960457;28;20698;-81
2023/10/10 11:52:52;;;;;;;0.10;0.10;;;23.30;99.90;;;;;;4957993;28;20184;-81
2023/10/10 11:55:25;;;;;;;0.10;0.10;;;23.40;99.90;;;;;;4975235;28;20204;-81
2023/10/10 11:57:57;;;;;;;0.10;0.10;;;23.50;99.90;;;;;;4958966;28;20173;-81
2023/10/10 12:00:30;;;;;;;0.10;0.10;;;23.70;99.90;;;;;;4962709;28;20360;-81
2023/10/10 12:02:57;;;;;;;0.10;0.10;;;23.70;99.90;;;;;;4957934;28;20687;-81
2023/10/10 12:08:01;;;;;;;0.10;0.10;;;23.80;99.90;;;;;;4957858;28;20249;-82
2023/10/10 12:13:09;;;;;;;0.10;0.10;;;23.90;99.90;;;;;;4961583;28;20177;-81
2023/10/10 12:15:39;;;;;;;0.10;0.10;;;24.00;99.90;;;;;;4962192;28;20180;-81
2023/10/10 12:18:09;;;;;;;0.10;0.10;;;24.10;99.90;;;;;;4975350;28;20173;-81
2023/10/10 12:20:43;;;;;;;0.10;0.10;;;24.00;99.90;;;;;;4975593;28;20400;-81
2023/10/10 12:23:12;;;;;;;0.10;0.10;;;24.10;99.90;;;;;;4959683;28;20675;-82
2023/10/10 12:25:41;;;;;;;0.10;0.10;;;24.30;99.90;;;;;;4959407;28;20185;-81
2023/10/10 12:28:09;;;;;;;0.10;0.10;;;24.30;99.90;;;;;;4957468;28;20185;-81
2023/10/10 12:30:40;;;;;;;0.10;0.10;;;23.80;99.90;;;;;;4959321;28;20583;-81
2023/10/10 12:33:07;;;;;;;0.10;0.10;;;23.60;99.90;;;;;;4959793;28;20870;-81
2023/10/10 12:35:32;;;;;;;0.10;0.10;;;23.60;99.90;;;;;;4960492;28;20185;-80
2023/10/10 12:38:01;;;;;;;0.10;0.10;;;23.80;99.90;;;;;;4963735;28;20188;-81
2023/10/10 12:40:33;;;;;;;0.10;0.10;;;23.90;99.90;;;;;;4963482;28;20231;-81
2023/10/10 12:43:03;;;;;;;0.10;0.10;;;24.00;99.90;;;;;;4960249;28;20664;-81
2023/10/10 12:45:29;;;;;;;0.10;0.10;;;24.10;99.90;;;;;;4964424;28;20652;-80
2023/10/10 12:47:57;;;;;;;0.10;0.10;;;24.20;99.90;;;;;;4958526;28;20180;-81
2023/10/10 12:50:26;;;;;;;0.10;0.10;;;24.40;99.90;;;;;;4962883;28;20205;-81
2023/10/10 12:53:07;;;;;;;0.10;0.10;;;24.50;99.90;;;;;;4964259;28;20185;-81
2023/10/10 12:55:36;;;;;;;0.10;0.10;;;24.50;99.90;;;;;;4960178;28;20227;-81
2023/10/10 12:58:15;;;;;;;0.10;0.10;;;24.60;99.90;;;;;;4964619;28;20169;-81
2023/10/10 13:00:50;;;;;;;0.10;0.10;;;24.50;99.90;;;;;;4963503;28;20181;-81
2023/10/10 13:03:28;;;;;;;0.10;0.10;;;24.70;99.90;;;;;;4960360;28;20215;-81
2023/10/10 13:05:58;;;;;;;0.10;0.10;;;24.60;99.90;;;;;;4963781;28;20184;-81
2023/10/10 13:08:25;;;;;;;0.10;0.10;;;24.60;99.90;;;;;;4962517;28;20243;-81
2023/10/10 13:10:54;;;;;;;0.10;0.10;;;24.50;99.90;;;;;;4959756;28;20212;-81
2023/10/10 13:13:27;;;;;;;0.10;0.10;;;24.50;99.90;;;;;;4963559;28;20201;-81
2023/10/10 13:16:22;;;;;;;0.10;0.10;;;24.60;99.90;;;;;;4962856;28;20212;-81
2023/10/10 13:18:48;;;;;;;0.10;0.10;;;24.60;99.90;;;;;;4962203;28;20189;-81
2023/10/10 13:21:15;;;;;;;0.10;0.10;;;24.50;99.90;;;;;;4961472;28;20189;-81
2023/10/10 13:23:43;;;;;;;0.10;0.10;;;24.40;99.90;;;;;;4963222;28;20279;-81
2023/10/10 13:26:09;;;;;;;0.10;0.10;;;24.20;99.90;;;;;;4963310;28;20228;-81
2023/10/10 13:28:36;;;;;;;0.10;0.10;;;24.20;99.90;;;;;;4962686;28;20264;-81
2023/10/10 13:31:02;;;;;;;0.10;0.10;;;24.10;99.90;;;;;;4963298;28;20201;-81
2023/10/10 13:33:28;;;;;;;0.10;0.10;;;24.10;99.90;;;;;;4962392;28;20201;-81
2023/10/10 13:35:53;;;;;;;0.10;0.10;;;24.10;99.90;;;;;;4959502;28;20181;-81
2023/10/10 13:38:19;;;;;;;0.10;0.10;;;24.00;99.90;;;;;;4962409;28;20240;-81
2023/10/10 13:40:46;;;;;;;0.10;0.10;;;24.00;99.90;;;;;;4958465;28;20189;-81
2023/10/10 13:43:18;;;;;;;0.10;0.10;;;24.00;99.90;;;;;;4960374;28;20203;-81
2023/10/10 13:45:48;;;;;;;0.10;0.10;;;24.10;99.90;;;;;;4974746;28;20653;-81
2023/10/10 13:48:18;;;;;;;0.10;0.10;;;24.10;99.90;;;;;;4961199;28;20652;-81
2023/10/10 13:50:45;;;;;;;0.10;0.10;;;24.10;99.90;;;;;;4957083;28;20695;-81
2023/10/10 13:53:14;;;;;;;0.10;0.10;;;24.20;99.90;;;;;;4959655;28;20199;-81
2023/10/10 13:55:41;;;;;;;0.10;0.10;;;24.10;99.90;;;;;;4960180;28;20176;-81
2023/10/10 13:58:10;;;;;;;0.10;0.10;;;24.30;99.90;;;;;;4963268;28;20763;-81
2023/10/10 14:00:37;;;;;;;0.10;0.10;;;24.30;99.90;;;;;;4959761;28;20192;-81
2023/10/10 14:03:04;;;;;;;0.10;0.10;;;24.30;99.90;;;;;;4961588;28;20196;-81
2023/10/10 14:05:37;;;;;;;0.10;0.10;;;24.40;99.90;;;;;;4958613;28;20230;-81
2023/10/10 14:08:17;;;;;;;0.10;0.10;;;24.30;99.90;;;;;;4959721;28;20668;-80
2023/10/10 14:10:43;;;;;;;0.10;0.10;;;24.40;99.90;;;;;;4961700;28;20299;-80
2023/10/10 14:13:18;;;;;;;0.10;0.10;;;24.40;99.90;;;;;;4961838;28;20311;-81
2023/10/10 14:15:54;;;;;;;0.10;0.10;;;24.50;99.90;;;;;;4963334;28;20195;-81
2023/10/10 14:18:49;;;;;;;0.10;0.10;;;24.50;99.90;;;;;;4959879;28;20172;-81
2023/10/10 14:21:16;;;;;;;0.10;0.10;;;24.60;99.90;;;;;;4964560;28;20181;-80
2023/10/10 14:23:45;;;;;;;0.10;0.10;;;24.60;99.90;;;;;;4961762;28;20229;-81
2023/10/10 14:26:18;;;;;;;0.10;0.10;;;24.60;99.90;;;;;;4960872;28;20181;-81
2023/10/10 14:28:52;;;;;;;0.10;0.10;;;24.70;99.90;;;;;;4962782;28;20180;-81
2023/10/10 14:31:23;;;;;;;0.10;0.10;;;24.70;99.90;;;;;;4961780;28;20971;-81
2023/10/10 14:33:50;;;;;;;0.10;0.10;;;24.70;99.90;;;;;;4962233;28;20252;-80
2023/10/10 14:36:16;;;;;;;0.10;0.10;;;24.80;99.90;;;;;;4964227;28;21073;-81
2023/10/10 14:38:46;;;;;;;0.10;0.10;;;24.80;99.90;;;;;;4962465;28;20276;-81
2023/10/10 14:41:18;;;;;;;0.10;0.10;;;24.70;99.90;;;;;;4974301;28;20219;-80
2023/10/10 14:43:51;;;;;;;0.10;0.10;;;24.70;99.90;;;;;;4975068;28;20216;-80
2023/10/10 14:46:21;;;;;;;0.10;0.10;;;24.70;99.90;;;;;;4961089;28;20185;-80
2023/10/10 14:48:51;;;;;;;0.10;0.10;;;24.70;99.90;;;;;;4959521;28;20204;-80
2023/10/10 14:51:17;;;;;;;0.10;0.10;;;24.70;99.90;;;;;;4960188;28;20235;-80
2023/10/10 14:53:51;;;;;;;0.10;0.10;;;24.60;99.90;;;;;;4974901;28;20967;-80
2023/10/10 14:56:24;;;;;;;0.10;0.10;;;24.60;99.90;;;;;;4961277;28;20243;-80
2023/10/10 14:58:50;;;;;;;0.10;0.10;;;24.60;99.90;;;;;;4961454;28;20181;-80
2023/10/10 15:01:20;;;;;;;0.10;0.10;;;24.50;99.90;;;;;;4957782;28;20192;-80
2023/10/10 15:03:47;;;;;;;0.10;0.10;;;24.50;99.90;;;;;;4958437;28;20224;-80
2023/10/10 15:06:15;;;;;;;0.10;0.10;;;24.40;99.90;;;;;;4960860;28;20250;-80
2023/10/10 15:08:43;;;;;;;0.10;0.10;;;24.30;99.90;;;;;;4953723;28;20208;-80
2023/10/10 15:11:11;;;;;;;0.10;0.10;;;24.30;99.90;;;;;;4970781;28;20208;-80
2023/10/10 15:13:41;;;;;;;0.10;0.10;;;24.20;99.90;;;;;;4959406;28;20569;-80
2023/10/10 15:16:10;;;;;;;0.10;0.10;;;24.20;99.90;;;;;;4959952;28;20640;-80
2023/10/10 15:18:37;;;;;;;0.10;0.10;;;24.10;99.90;;;;;;4959499;28;20192;-81
2023/10/10 15:21:02;;;;;;;0.10;0.10;;;24.10;99.90;;;;;;4956459;28;20193;-80
2023/10/10 15:23:28;;;;;;;0.10;0.10;;;24.00;99.90;;;;;;4960458;28;20556;-80
2023/10/10 15:25:55;;;;;;;0.10;0.10;;;23.90;99.90;;;;;;4957890;28;20689;-80
2023/10/10 15:28:23;;;;;;;0.10;0.10;;;23.80;99.90;;;;;;4959391;28;20197;-81
2023/10/10 15:30:49;;;;;;;0.10;0.10;;;23.80;99.90;;;;;;4958119;28;20615;-81
2023/10/10 15:33:17;;;;;;;0.10;0.10;;;23.70;99.90;;;;;;4974649;28;20192;-81
2023/10/10 15:35:50;;;;;;;0.10;0.10;;;23.60;99.90;;;;;;4967687;28;20268;-82
2023/10/10 15:38:16;;;;;;;0.10;0.10;;;23.60;99.90;;;;;;4966875;28;20176;-81
2023/10/10 15:40:43;;;;;;;0.10;0.10;;;23.40;99.90;;;;;;4969500;28;20192;-81
2023/10/10 15:43:11;;;;;;;0.10;0.10;;;23.30;99.90;;;;;;4972689;28;20205;-81
2023/10/10 15:45:47;;;;;;;0.10;0.10;;;23.20;99.90;;;;;;4967647;28;20189;-80
2023/10/10 15:48:22;;;;;;;0.10;0.10;;;23.10;99.90;;;;;;4961652;28;20189;-80
2023/10/10 15:50:57;;;;;;;0.10;0.10;;;22.90;99.90;;;;;;4959644;28;20598;-80
2023/10/10 15:53:25;;;;;;;0.10;0.10;;;22.80;99.90;;;;;;4975349;28;20203;-81
2023/10/10 15:56:16;;;;;;;0.10;0.10;;;22.70;99.90;;;;;;4963295;28;20657;-82
2023/10/10 15:58:49;;;;;;;0.10;0.10;;;22.60;99.90;;;;;;4961733;28;20796;-80
2023/10/10 16:01:21;;;;;;;0.10;0.10;;;22.50;99.90;;;;;;4958054;28;20361;-82
2023/10/10 16:03:51;;;;;;;0.10;0.10;;;22.40;99.90;;;;;;4957927;28;20220;-82
2023/10/10 16:06:18;;;;;;;0.10;0.10;;;22.30;99.90;;;;;;4960119;28;20184;-82